Lewiston Nez Perce County Airport Lewiston US
ICAO: KLWS
IATA: LWS
Category: Medium
Scheduled Services: Yes

Elevation: 1442 ft
TransAlt. 18000 ft.

Airport Communications:
ASOS:135.575
SEATTLE CNTR:123.95
CTAF:119.4
GND:121.9
BOISE RDO:122.35
TWR:119.4
UNICOM:122.95

KLWS Zoom In..

Runways:

(A) RW 08 length 6512 ft width 150 ft
---- / hdg 83

(B) RW 12 length 5000 ft width 100 ft
---- / hdg 116

(C) RW 26 length 6512 ft width 150 ft
ILS 109.70 / hdg 263

(D) RW 30 length 5000 ft width 100 ft
---- / hdg 296

Location; KLWS
Day. 22 / Time. 23.56 Zulu
* Altimeter: 30.23
* Temperature: 08° c. 46.4°f.
* Wind from: 090° Speed 04 kn.
Dewpoint: 02° c.
Visibility: 10 Statute Miles.
Clouds: Few 1000 ft.

KLWS 222356Z 09004KT 10SM FEW100 08/02 A3023 RMK AO2 SLP246 60002 T00830022 10089 20056 53009


Wind From 090°
Speed 04 kn.

YouTube Music Video
 
jpsmedia.com for Web Design  worldairports.se 2018   terms of use